createdAt,value
2022-12-31T00:00:09.636Z,7.96
2022-12-31T00:02:36.709Z,7.79
2022-12-31T00:05:04.630Z,7.93
2022-12-31T00:10:01.672Z,7.99
2022-12-31T00:12:28.767Z,8.17
2022-12-31T00:14:55.649Z,8.19
2022-12-31T00:17:22.581Z,8.15
2022-12-31T00:19:49.468Z,8.36
2022-12-31T00:22:16.406Z,8.38
2022-12-31T00:24:43.239Z,8.53
2022-12-31T00:27:10.176Z,8.61
2022-12-31T00:29:36.961Z,8.70
2022-12-31T00:32:03.944Z,8.47
2022-12-31T00:34:30.836Z,8.70
2022-12-31T00:36:57.715Z,8.73
2022-12-31T00:39:24.803Z,8.82
2022-12-31T00:41:51.717Z,8.89
2022-12-31T00:44:18.568Z,8.89
2022-12-31T00:49:11.531Z,8.64
2022-12-31T00:51:38.764Z,8.83
2022-12-31T00:54:05.835Z,8.81
2022-12-31T00:56:32.947Z,8.91
2022-12-31T00:59:00.482Z,8.87
2022-12-31T01:01:33.383Z,8.79
2022-12-31T01:04:05.046Z,8.71
2022-12-31T01:06:32.693Z,8.52
2022-12-31T01:08:59.709Z,8.32
2022-12-31T01:11:31.722Z,8.21
2022-12-31T01:14:08.575Z,8.27
2022-12-31T01:16:39.641Z,8.06
2022-12-31T01:19:10.279Z,8.10
2022-12-31T01:21:40.135Z,8.06
2022-12-31T01:24:08.420Z,7.80
2022-12-31T01:26:36.039Z,7.91
2022-12-31T01:29:04.085Z,7.97
2022-12-31T01:31:31.162Z,8.00
2022-12-31T01:33:58.534Z,8.04
2022-12-31T01:36:29.603Z,7.93
2022-12-31T01:38:58.152Z,7.84
2022-12-31T01:41:27.869Z,7.86
2022-12-31T01:43:57.584Z,7.85
2022-12-31T01:46:49.014Z,7.84
2022-12-31T01:49:32.048Z,7.74
2022-12-31T01:52:10.173Z,7.86
2022-12-31T01:54:42.206Z,7.69
2022-12-31T01:57:09.920Z,7.85
2022-12-31T01:59:37.762Z,7.74
2022-12-31T02:02:05.923Z,7.81
2022-12-31T02:04:32.925Z,7.78
2022-12-31T02:07:04.352Z,7.66
2022-12-31T02:09:32.461Z,7.76
2022-12-31T02:11:59.468Z,7.74
2022-12-31T02:14:34.035Z,7.70
2022-12-31T02:17:19.324Z,7.63
2022-12-31T02:20:03.235Z,7.68
2022-12-31T02:22:51.697Z,7.63
2022-12-31T02:25:33.058Z,7.52
2022-12-31T02:28:18.590Z,7.38
2022-12-31T02:30:50.535Z,7.38
2022-12-31T02:33:27.286Z,7.30
2022-12-31T02:35:59.707Z,7.08
2022-12-31T02:38:34.125Z,7.29
2022-12-31T02:41:01.440Z,7.40
2022-12-31T02:43:28.645Z,7.49
2022-12-31T02:46:16.965Z,7.40
2022-12-31T02:49:09.175Z,7.23
2022-12-31T02:51:52.817Z,7.25
2022-12-31T02:54:32.220Z,7.14
2022-12-31T02:57:10.208Z,7.32
2022-12-31T03:00:26.923Z,7.38
2022-12-31T03:02:55.933Z,7.47
2022-12-31T03:05:27.068Z,7.55
2022-12-31T03:07:54.456Z,7.59
2022-12-31T03:10:21.817Z,7.60
2022-12-31T03:12:49.011Z,7.72
2022-12-31T03:15:24.127Z,7.75
2022-12-31T03:18:00.000Z,7.78
2022-12-31T03:20:57.186Z,7.79
2022-12-31T03:23:28.149Z,7.84
2022-12-31T03:25:56.566Z,7.69
2022-12-31T03:28:26.927Z,7.59
2022-12-31T03:30:57.008Z,7.43
2022-12-31T03:33:24.623Z,7.57
2022-12-31T03:35:52.495Z,7.62
2022-12-31T03:38:20.096Z,7.62
2022-12-31T03:40:49.766Z,7.61
2022-12-31T03:43:17.095Z,7.63
2022-12-31T03:45:44.117Z,7.54
2022-12-31T03:48:11.225Z,7.53
2022-12-31T03:50:38.089Z,7.44
2022-12-31T03:53:05.171Z,7.54
2022-12-31T03:55:32.035Z,7.47
2022-12-31T03:57:58.840Z,7.45
2022-12-31T04:00:25.835Z,7.36
2022-12-31T04:02:53.344Z,7.30
2022-12-31T04:05:21.084Z,7.29
2022-12-31T04:07:48.041Z,7.32
2022-12-31T04:10:17.731Z,7.20
2022-12-31T04:12:45.829Z,7.12
2022-12-31T04:15:18.451Z,7.13
2022-12-31T04:17:45.910Z,7.10
2022-12-31T04:20:12.845Z,7.04
2022-12-31T04:22:39.837Z,7.03
2022-12-31T04:25:11.615Z,7.04
2022-12-31T04:27:43.933Z,6.71
2022-12-31T04:30:12.203Z,6.82
2022-12-31T04:32:39.143Z,6.88
2022-12-31T04:35:07.713Z,6.52
2022-12-31T04:37:34.528Z,6.50
2022-12-31T04:40:05.972Z,6.63
2022-12-31T04:42:34.691Z,6.20
2022-12-31T04:45:01.563Z,6.25
2022-12-31T04:47:28.534Z,6.43
2022-12-31T04:49:55.679Z,6.41
2022-12-31T04:52:22.609Z,6.23
2022-12-31T04:54:49.422Z,6.25
2022-12-31T04:57:16.437Z,6.29
2022-12-31T04:59:43.262Z,6.14
2022-12-31T05:02:10.506Z,6.05
2022-12-31T05:04:37.669Z,6.03
2022-12-31T05:07:04.572Z,5.99
2022-12-31T05:09:31.443Z,6.13
2022-12-31T05:11:58.320Z,6.28
2022-12-31T05:14:25.760Z,6.36
2022-12-31T05:16:52.789Z,6.40
2022-12-31T05:19:19.820Z,6.54
2022-12-31T05:22:06.582Z,6.66
2022-12-31T05:24:33.513Z,6.72
2022-12-31T05:27:00.307Z,6.67
2022-12-31T05:29:27.122Z,6.70
2022-12-31T05:31:53.975Z,6.71
2022-12-31T05:34:20.764Z,6.79
2022-12-31T05:36:47.559Z,6.89
2022-12-31T05:39:14.497Z,6.87
2022-12-31T05:41:41.268Z,6.90
2022-12-31T05:44:08.171Z,6.92
2022-12-31T05:46:35.021Z,7.07
2022-12-31T05:49:01.826Z,7.17
2022-12-31T05:51:28.620Z,7.25
2022-12-31T05:53:55.463Z,7.31
2022-12-31T05:56:22.320Z,7.26
2022-12-31T05:58:49.178Z,7.37
2022-12-31T06:01:16.089Z,7.35
2022-12-31T06:03:43.046Z,7.29
2022-12-31T06:06:09.868Z,6.95
2022-12-31T06:08:36.865Z,6.82
2022-12-31T06:11:04.003Z,7.02
2022-12-31T06:13:30.840Z,7.06
2022-12-31T06:16:04.581Z,7.16
2022-12-31T06:18:31.409Z,7.22
2022-12-31T06:20:58.975Z,7.29
2022-12-31T06:23:25.852Z,7.29
2022-12-31T06:25:52.765Z,7.28
2022-12-31T06:28:20.624Z,7.46
2022-12-31T06:30:47.953Z,7.46
2022-12-31T06:33:14.822Z,7.53
2022-12-31T06:35:41.623Z,8.27
2022-12-31T06:38:08.506Z,9.75
2022-12-31T06:40:37.741Z,10.79
2022-12-31T06:43:04.542Z,11.80
2022-12-31T06:45:31.405Z,12.56
2022-12-31T06:47:58.207Z,12.78
2022-12-31T06:50:25.121Z,13.12
2022-12-31T06:52:51.959Z,13.90
2022-12-31T06:55:19.165Z,14.46
2022-12-31T06:57:46.350Z,14.68
2022-12-31T07:00:13.820Z,15.88
2022-12-31T07:03:08.167Z,16.48
2022-12-31T07:05:46.067Z,16.40
2022-12-31T07:08:40.292Z,16.05
2022-12-31T07:11:23.373Z,17.10
2022-12-31T07:14:20.407Z,17.41
2022-12-31T07:16:57.963Z,17.89
2022-12-31T07:19:57.870Z,17.38
2022-12-31T07:22:25.844Z,18.46
2022-12-31T07:24:52.921Z,18.34
2022-12-31T07:27:19.649Z,18.99
2022-12-31T07:30:17.185Z,19.41
2022-12-31T07:32:44.123Z,19.71
2022-12-31T07:35:48.802Z,19.83
2022-12-31T07:38:36.065Z,19.66
2022-12-31T07:41:39.073Z,20.26
2022-12-31T07:44:25.054Z,22.74
2022-12-31T07:46:57.311Z,22.29
2022-12-31T07:49:25.582Z,22.13
2022-12-31T07:51:53.107Z,21.76
2022-12-31T07:54:21.014Z,21.38
2022-12-31T07:56:48.585Z,21.01
2022-12-31T07:59:44.327Z,20.89
2022-12-31T08:02:22.167Z,20.26
2022-12-31T08:05:11.300Z,20.92
2022-12-31T08:08:05.796Z,21.41
2022-12-31T08:10:36.523Z,20.76
2022-12-31T08:13:08.637Z,21.08
2022-12-31T08:15:38.097Z,19.03
2022-12-31T08:18:05.525Z,20.12
2022-12-31T08:20:34.367Z,19.99
2022-12-31T08:23:28.775Z,20.31
2022-12-31T08:26:11.922Z,19.33
2022-12-31T08:29:02.273Z,18.85
2022-12-31T08:31:45.305Z,17.08
2022-12-31T08:34:52.398Z,18.07
2022-12-31T08:37:26.662Z,18.16
2022-12-31T08:40:27.049Z,18.39
2022-12-31T08:43:09.044Z,18.74
2022-12-31T08:45:43.414Z,18.25
2022-12-31T08:48:24.773Z,18.21
2022-12-31T08:50:52.067Z,18.05
2022-12-31T08:53:19.156Z,17.51
2022-12-31T08:55:49.583Z,17.57
2022-12-31T08:58:34.444Z,18.11
2022-12-31T09:01:02.392Z,18.66
2022-12-31T09:03:50.480Z,18.64
2022-12-31T09:06:34.051Z,18.84
2022-12-31T09:09:42.810Z,18.98
2022-12-31T09:12:45.369Z,18.90
2022-12-31T09:15:21.199Z,19.05
2022-12-31T09:17:50.585Z,18.81
2022-12-31T09:20:42.818Z,19.25
2022-12-31T09:23:12.544Z,18.93
2022-12-31T09:25:52.060Z,18.97
2022-12-31T09:28:40.664Z,18.75
2022-12-31T09:31:26.660Z,18.69
2022-12-31T09:34:36.809Z,18.37
2022-12-31T09:37:13.859Z,18.84
2022-12-31T09:39:46.345Z,18.62
2022-12-31T09:42:43.008Z,18.07
2022-12-31T09:45:28.491Z,17.99
2022-12-31T09:48:37.622Z,18.63
2022-12-31T09:51:07.864Z,18.20
2022-12-31T09:54:12.044Z,18.23
2022-12-31T09:57:14.450Z,18.72
2022-12-31T09:59:53.423Z,18.88
2022-12-31T10:02:26.789Z,19.11
2022-12-31T10:05:18.567Z,18.98
2022-12-31T10:08:07.717Z,18.40
2022-12-31T10:10:47.109Z,19.02
2022-12-31T10:13:40.925Z,18.62
2022-12-31T10:16:11.011Z,18.85
2022-12-31T10:18:54.860Z,19.04
2022-12-31T10:21:38.107Z,19.20
2022-12-31T10:24:34.056Z,19.52
2022-12-31T10:27:51.792Z,19.63
2022-12-31T10:30:21.528Z,19.35
2022-12-31T10:33:07.353Z,19.37
2022-12-31T10:35:59.188Z,19.88
2022-12-31T10:38:55.899Z,19.83
2022-12-31T10:41:45.879Z,19.17
2022-12-31T10:44:31.363Z,19.23
2022-12-31T10:47:01.269Z,19.47
2022-12-31T10:50:03.841Z,18.95
2022-12-31T10:52:52.297Z,19.84
2022-12-31T10:55:49.782Z,19.60
2022-12-31T10:58:34.815Z,19.47
2022-12-31T11:01:17.101Z,19.77
2022-12-31T11:04:03.365Z,19.53
2022-12-31T11:06:49.663Z,19.64
2022-12-31T11:09:52.119Z,19.59
2022-12-31T11:12:46.695Z,19.63
2022-12-31T11:15:38.575Z,19.55
2022-12-31T11:18:36.407Z,19.48
2022-12-31T11:21:19.690Z,19.26
2022-12-31T11:24:04.121Z,19.35
2022-12-31T11:27:01.973Z,19.28
2022-12-31T11:29:43.345Z,19.17
2022-12-31T11:32:19.347Z,19.28
2022-12-31T11:34:55.627Z,19.27
2022-12-31T11:38:16.217Z,19.26
2022-12-31T11:41:15.356Z,19.05
2022-12-31T11:44:03.965Z,19.18
2022-12-31T11:46:59.889Z,18.99
2022-12-31T11:49:32.848Z,18.99
2022-12-31T11:52:21.663Z,18.75
2022-12-31T11:54:58.796Z,18.94
2022-12-31T11:57:36.677Z,18.92
2022-12-31T12:00:09.741Z,18.89
2022-12-31T12:02:43.000Z,18.89
2022-12-31T12:05:11.714Z,18.63
2022-12-31T12:07:38.992Z,18.56
2022-12-31T12:10:31.930Z,18.74
2022-12-31T12:13:26.844Z,18.17
2022-12-31T12:15:59.550Z,18.49
2022-12-31T12:18:50.818Z,18.30
2022-12-31T12:21:21.806Z,18.29
2022-12-31T12:23:56.100Z,18.46
2022-12-31T12:26:49.401Z,18.53
2022-12-31T12:29:23.656Z,18.63
2022-12-31T12:32:07.121Z,18.52
2022-12-31T12:34:36.658Z,18.31
2022-12-31T12:37:05.370Z,18.09
2022-12-31T12:39:33.767Z,17.94
2022-12-31T12:42:18.578Z,17.77
2022-12-31T12:44:45.499Z,17.55
2022-12-31T12:47:16.321Z,17.44
2022-12-31T12:49:47.373Z,17.47
2022-12-31T12:52:41.042Z,17.40
2022-12-31T12:55:33.462Z,17.33
2022-12-31T12:58:48.574Z,17.22
2022-12-31T13:01:35.044Z,17.43
2022-12-31T13:04:33.867Z,17.43
2022-12-31T13:07:46.532Z,17.45
2022-12-31T13:10:40.233Z,17.32
2022-12-31T13:13:25.947Z,17.27
2022-12-31T13:16:03.282Z,17.17
2022-12-31T13:18:54.537Z,17.21
2022-12-31T13:21:44.518Z,16.99
2022-12-31T13:24:19.422Z,16.87
2022-12-31T13:26:57.529Z,16.72
2022-12-31T13:29:28.931Z,16.70
2022-12-31T13:31:58.022Z,16.60
2022-12-31T13:34:30.738Z,16.58
2022-12-31T13:37:02.820Z,16.55
2022-12-31T13:39:33.580Z,16.56
2022-12-31T13:42:20.932Z,16.53
2022-12-31T13:44:54.230Z,16.50
2022-12-31T13:47:29.959Z,16.48
2022-12-31T13:50:14.253Z,16.49
2022-12-31T13:52:53.109Z,16.38
2022-12-31T13:55:41.964Z,16.37
2022-12-31T13:58:45.965Z,16.39
2022-12-31T14:01:33.894Z,16.73
2022-12-31T14:04:26.394Z,16.47
2022-12-31T14:07:07.564Z,16.41
2022-12-31T14:09:35.859Z,16.36
2022-12-31T14:12:30.008Z,16.22
2022-12-31T14:15:11.700Z,16.13
2022-12-31T14:18:04.335Z,16.15
2022-12-31T14:20:53.624Z,16.03
2022-12-31T14:23:40.498Z,15.89
2022-12-31T14:26:40.388Z,15.82
2022-12-31T14:29:15.064Z,15.73
2022-12-31T14:31:54.291Z,15.67
2022-12-31T14:34:53.178Z,15.56
2022-12-31T14:37:19.920Z,15.54
2022-12-31T14:40:06.601Z,15.44
2022-12-31T14:42:38.414Z,15.37
2022-12-31T14:45:42.462Z,15.25
2022-12-31T14:48:33.503Z,15.12
2022-12-31T14:51:03.184Z,15.03
2022-12-31T14:53:30.629Z,14.95
2022-12-31T14:56:01.985Z,14.85
2022-12-31T14:58:44.267Z,14.80
2022-12-31T15:01:22.781Z,14.76
2022-12-31T15:03:52.537Z,14.64
2022-12-31T15:06:47.306Z,14.55
2022-12-31T15:09:44.307Z,14.43
2022-12-31T15:12:52.688Z,14.37
2022-12-31T15:15:43.167Z,14.26
2022-12-31T15:18:29.366Z,14.19
2022-12-31T15:20:59.128Z,14.02
2022-12-31T15:23:38.282Z,13.92
2022-12-31T15:26:06.451Z,13.84
2022-12-31T15:28:39.713Z,13.81
2022-12-31T15:31:06.655Z,13.84
2022-12-31T15:33:53.058Z,13.63
2022-12-31T15:36:22.590Z,13.39
2022-12-31T15:38:50.677Z,13.38
2022-12-31T15:41:20.554Z,13.27
2022-12-31T15:43:49.844Z,13.10
2022-12-31T15:46:20.936Z,13.12
2022-12-31T15:49:01.987Z,12.99
2022-12-31T15:51:43.147Z,12.84
2022-12-31T15:54:23.091Z,12.83
2022-12-31T15:56:50.600Z,12.71
2022-12-31T15:59:18.596Z,12.55
2022-12-31T16:01:46.943Z,12.46
2022-12-31T16:04:39.480Z,12.39
2022-12-31T16:07:06.377Z,12.13
2022-12-31T16:09:35.998Z,12.15
2022-12-31T16:12:10.342Z,11.96
2022-12-31T16:14:43.847Z,11.75
2022-12-31T16:17:32.714Z,11.81
2022-12-31T16:20:01.804Z,11.63
2022-12-31T16:22:36.848Z,11.45
2022-12-31T16:25:30.285Z,11.35
2022-12-31T16:27:55.929Z,11.32
2022-12-31T16:30:29.616Z,11.28
2022-12-31T16:33:01.843Z,11.44
2022-12-31T16:35:30.883Z,11.43
2022-12-31T16:38:02.508Z,11.46
2022-12-31T16:40:29.892Z,11.26
2022-12-31T16:42:56.711Z,11.37
2022-12-31T16:45:36.641Z,11.19
2022-12-31T16:48:17.149Z,11.18
2022-12-31T16:50:47.249Z,11.34
2022-12-31T16:53:18.396Z,11.29
2022-12-31T16:55:54.042Z,11.27
2022-12-31T16:58:33.812Z,11.17
2022-12-31T17:01:09.639Z,11.24
2022-12-31T17:03:41.651Z,11.15
2022-12-31T17:06:12.791Z,11.07
2022-12-31T17:08:50.296Z,10.93
2022-12-31T17:11:34.818Z,10.87
2022-12-31T17:14:16.111Z,10.80
2022-12-31T17:17:03.330Z,10.79
2022-12-31T17:19:51.383Z,10.77
2022-12-31T17:22:34.226Z,10.64
2022-12-31T17:25:20.167Z,10.44
2022-12-31T17:27:57.981Z,10.34
2022-12-31T17:30:27.777Z,10.37
2022-12-31T17:33:13.256Z,10.33
2022-12-31T17:35:42.595Z,10.13
2022-12-31T17:38:21.060Z,10.15
2022-12-31T17:40:53.682Z,10.03
2022-12-31T17:43:23.057Z,9.75
2022-12-31T17:45:54.764Z,9.75
2022-12-31T17:48:24.816Z,9.60
2022-12-31T17:50:55.538Z,9.44
2022-12-31T17:53:23.078Z,9.39
2022-12-31T17:55:52.934Z,9.34
2022-12-31T17:58:42.625Z,9.38
2022-12-31T18:01:10.237Z,9.37
2022-12-31T18:03:37.474Z,9.42
2022-12-31T18:06:05.574Z,9.48
2022-12-31T18:08:32.465Z,9.59
2022-12-31T18:10:59.431Z,9.60
2022-12-31T18:13:27.740Z,9.56
2022-12-31T18:15:55.292Z,9.23
2022-12-31T18:18:29.604Z,9.22
2022-12-31T18:21:02.266Z,9.21
2022-12-31T18:23:35.195Z,9.26
2022-12-31T18:26:01.980Z,9.35
2022-12-31T18:28:28.797Z,9.38
2022-12-31T18:30:55.862Z,9.35
2022-12-31T18:33:24.044Z,9.46
2022-12-31T18:36:09.272Z,9.46
2022-12-31T18:38:37.052Z,9.41
2022-12-31T18:41:04.452Z,9.20
2022-12-31T18:43:31.935Z,9.32
2022-12-31T18:45:59.274Z,9.39
2022-12-31T18:48:26.260Z,9.28
2022-12-31T18:50:53.097Z,9.00
2022-12-31T18:53:23.109Z,9.02
2022-12-31T18:55:55.680Z,9.20
2022-12-31T18:58:23.438Z,9.22
2022-12-31T19:00:51.147Z,9.27
2022-12-31T19:03:22.132Z,9.11
2022-12-31T19:05:51.139Z,8.95
2022-12-31T19:08:19.695Z,9.05
2022-12-31T19:10:48.445Z,9.10
2022-12-31T19:13:17.567Z,9.17
2022-12-31T19:15:53.389Z,9.09
2022-12-31T19:18:20.257Z,9.09
2022-12-31T19:20:47.465Z,9.12
2022-12-31T19:23:20.589Z,9.02
2022-12-31T19:25:49.217Z,9.18
2022-12-31T19:28:27.050Z,9.16
2022-12-31T19:30:54.623Z,9.17
2022-12-31T19:33:21.901Z,9.20
2022-12-31T19:35:49.103Z,9.20
2022-12-31T19:38:22.829Z,9.14
2022-12-31T19:40:50.909Z,9.14
2022-12-31T19:43:20.432Z,9.09
2022-12-31T19:45:47.936Z,9.08
2022-12-31T19:48:24.683Z,9.08
2022-12-31T19:50:55.597Z,8.94
2022-12-31T19:53:25.844Z,8.94
2022-12-31T19:55:53.565Z,8.77
2022-12-31T19:58:26.568Z,8.67
2022-12-31T20:01:01.733Z,8.58
2022-12-31T20:03:30.142Z,8.64
2022-12-31T20:06:09.223Z,8.58
2022-12-31T20:08:38.340Z,8.67
2022-12-31T20:11:13.385Z,8.78
2022-12-31T20:13:41.224Z,8.68
2022-12-31T20:16:17.657Z,8.64
2022-12-31T20:18:45.945Z,8.71
2022-12-31T20:21:17.991Z,8.76
2022-12-31T20:23:45.184Z,8.86
2022-12-31T20:26:12.217Z,8.88
2022-12-31T20:28:39.431Z,8.49
2022-12-31T20:31:08.334Z,8.63
2022-12-31T20:33:35.650Z,8.72
2022-12-31T20:36:07.605Z,8.81
2022-12-31T20:38:34.723Z,8.75
2022-12-31T20:41:08.817Z,8.69
2022-12-31T20:43:37.133Z,8.69
2022-12-31T20:46:16.264Z,8.77
2022-12-31T20:48:44.540Z,8.80
2022-12-31T20:51:13.130Z,8.85
2022-12-31T20:53:40.764Z,8.80
2022-12-31T20:56:09.741Z,8.84
2022-12-31T20:58:37.143Z,8.89
2022-12-31T21:01:07.047Z,8.76
2022-12-31T21:04:07.010Z,8.60
2022-12-31T21:06:24.766Z,8.62
2022-12-31T21:08:51.695Z,8.47
2022-12-31T21:11:36.948Z,8.31
2022-12-31T21:14:04.093Z,8.30
2022-12-31T21:16:31.092Z,8.30
2022-12-31T21:18:58.407Z,8.22
2022-12-31T21:21:26.589Z,8.02
2022-12-31T21:23:53.620Z,7.91
2022-12-31T21:26:20.759Z,7.77
2022-12-31T21:28:47.648Z,7.67
2022-12-31T21:31:15.341Z,7.57
2022-12-31T21:33:46.784Z,7.64
2022-12-31T21:36:14.688Z,7.70
2022-12-31T21:38:41.730Z,7.87
2022-12-31T21:41:09.450Z,7.91
2022-12-31T21:43:36.324Z,7.90
2022-12-31T21:46:07.732Z,8.14
2022-12-31T21:48:34.991Z,8.09
2022-12-31T21:51:11.002Z,8.04
2022-12-31T21:53:38.048Z,8.04
2022-12-31T21:56:09.044Z,8.09
2022-12-31T21:58:38.449Z,8.10
2022-12-31T22:01:24.426Z,8.15
2022-12-31T22:03:52.067Z,8.16
2022-12-31T22:06:21.877Z,8.02
2022-12-31T22:08:54.761Z,7.94
2022-12-31T22:11:23.974Z,7.89
2022-12-31T22:13:51.842Z,7.97
2022-12-31T22:16:20.632Z,7.98
2022-12-31T22:18:48.683Z,7.96
2022-12-31T22:21:19.432Z,8.00
2022-12-31T22:23:49.344Z,8.09
2022-12-31T22:26:18.403Z,7.95
2022-12-31T22:28:46.546Z,7.76
2022-12-31T22:31:16.325Z,7.77
2022-12-31T22:33:44.189Z,7.85
2022-12-31T22:36:17.414Z,7.76
2022-12-31T22:38:44.608Z,7.77
2022-12-31T22:41:17.860Z,7.76
2022-12-31T22:43:49.151Z,7.86
2022-12-31T22:46:17.393Z,8.04
2022-12-31T22:48:45.005Z,8.07
2022-12-31T22:51:13.533Z,8.02
2022-12-31T22:53:41.739Z,7.93
2022-12-31T22:56:09.193Z,8.15
2022-12-31T22:58:36.884Z,8.18
2022-12-31T23:01:08.695Z,8.36
2022-12-31T23:03:35.856Z,8.41
2022-12-31T23:06:02.877Z,8.41
2022-12-31T23:08:29.694Z,8.36
2022-12-31T23:11:06.094Z,8.36
2022-12-31T23:13:58.804Z,8.20
2022-12-31T23:16:46.435Z,8.08
2022-12-31T23:19:32.994Z,8.20
2022-12-31T23:22:18.652Z,8.14
2022-12-31T23:24:45.466Z,8.18
2022-12-31T23:27:12.360Z,8.28
2022-12-31T23:29:46.186Z,8.31
2022-12-31T23:32:16.993Z,8.37
2022-12-31T23:34:45.619Z,8.42
2022-12-31T23:37:15.895Z,8.46
2022-12-31T23:39:43.009Z,8.47
2022-12-31T23:42:10.372Z,8.38
2022-12-31T23:44:37.313Z,8.30
2022-12-31T23:47:04.251Z,8.28
2022-12-31T23:49:31.158Z,7.92
2022-12-31T23:51:57.992Z,7.82
2022-12-31T23:54:24.795Z,7.96
2022-12-31T23:56:51.626Z,7.88
2022-12-31T23:59:18.623Z,8.02
